sensor_id;sensor_type;location;lat;lon;timestamp;temperature;humidity
12726;DHT22;6427;49.754;6.106;2022-12-11T00:01:54;0.70;99.90
12726;DHT22;6427;49.754;6.106;2022-12-11T00:04:21;0.70;99.90
12726;DHT22;6427;49.754;6.106;2022-12-11T00:06:50;0.70;99.90
12726;DHT22;6427;49.754;6.106;2022-12-11T00:09:19;0.70;99.90
12726;DHT22;6427;49.754;6.106;2022-12-11T00:11:46;0.70;99.90
12726;DHT22;6427;49.754;6.106;2022-12-11T00:14:14;0.70;99.90
12726;DHT22;6427;49.754;6.106;2022-12-11T00:16:41;0.70;99.90
12726;DHT22;6427;49.754;6.106;2022-12-11T00:19:09;0.70;99.90
12726;DHT22;6427;49.754;6.106;2022-12-11T00:21:37;0.70;99.90
12726;DHT22;6427;49.754;6.106;2022-12-11T00:24:05;0.90;99.90
12726;DHT22;6427;49.754;6.106;2022-12-11T00:26:33;0.90;99.90
12726;DHT22;6427;49.754;6.106;2022-12-11T00:29:01;0.90;99.90
12726;DHT22;6427;49.754;6.106;2022-12-11T00:31:29;0.80;99.90
12726;DHT22;6427;49.754;6.106;2022-12-11T00:33:57;0.70;99.90
12726;DHT22;6427;49.754;6.106;2022-12-11T00:36:25;1.00;99.90
12726;DHT22;6427;49.754;6.106;2022-12-11T00:38:52;0.90;99.90
12726;DHT22;6427;49.754;6.106;2022-12-11T00:41:19;0.90;99.90
12726;DHT22;6427;49.754;6.106;2022-12-11T00:43:47;0.80;99.90
12726;DHT22;6427;49.754;6.106;2022-12-11T00:46:15;1.00;99.90
12726;DHT22;6427;49.754;6.106;2022-12-11T00:48:42;1.00;99.90
12726;DHT22;6427;49.754;6.106;2022-12-11T00:51:10;0.90;99.90
12726;DHT22;6427;49.754;6.106;2022-12-11T00:53:38;0.80;99.90
12726;DHT22;6427;49.754;6.106;2022-12-11T00:56:12;0.80;99.90
12726;DHT22;6427;49.754;6.106;2022-12-11T00:58:39;0.80;99.90
12726;DHT22;6427;49.754;6.106;2022-12-11T01:01:10;0.70;99.90
12726;DHT22;6427;49.754;6.106;2022-12-11T01:03:37;1.00;99.90
12726;DHT22;6427;49.754;6.106;2022-12-11T01:06:05;1.00;99.90
12726;DHT22;6427;49.754;6.106;2022-12-11T01:08:33;0.90;99.90
12726;DHT22;6427;49.754;6.106;2022-12-11T01:11:04;0.80;99.90
12726;DHT22;6427;49.754;6.106;2022-12-11T01:13:31;0.80;99.90
12726;DHT22;6427;49.754;6.106;2022-12-11T01:16:04;0.70;99.90
12726;DHT22;6427;49.754;6.106;2022-12-11T01:18:27;0.70;99.90
12726;DHT22;6427;49.754;6.106;2022-12-11T01:20:54;0.70;99.90
12726;DHT22;6427;49.754;6.106;2022-12-11T01:23:22;0.70;99.90
12726;DHT22;6427;49.754;6.106;2022-12-11T01:25:49;0.60;99.90
12726;DHT22;6427;49.754;6.106;2022-12-11T01:28:17;0.60;99.90
12726;DHT22;6427;49.754;6.106;2022-12-11T01:30:44;0.60;99.90
12726;DHT22;6427;49.754;6.106;2022-12-11T01:33:13;0.80;99.90
12726;DHT22;6427;49.754;6.106;2022-12-11T01:35:40;0.80;99.90
12726;DHT22;6427;49.754;6.106;2022-12-11T01:38:08;0.70;99.90
12726;DHT22;6427;49.754;6.106;2022-12-11T01:40:35;0.70;99.90
12726;DHT22;6427;49.754;6.106;2022-12-11T01:43:03;0.60;99.90
12726;DHT22;6427;49.754;6.106;2022-12-11T01:45:44;0.60;99.90
12726;DHT22;6427;49.754;6.106;2022-12-11T01:48:18;0.60;99.90
12726;DHT22;6427;49.754;6.106;2022-12-11T01:50:46;0.50;99.90
12726;DHT22;6427;49.754;6.106;2022-12-11T01:53:12;0.50;99.90
12726;DHT22;6427;49.754;6.106;2022-12-11T01:55:39;0.70;99.90
12726;DHT22;6427;49.754;6.106;2022-12-11T01:58:07;0.70;99.90
12726;DHT22;6427;49.754;6.106;2022-12-11T02:00:34;0.70;99.90
12726;DHT22;6427;49.754;6.106;2022-12-11T02:03:02;0.60;99.90
12726;DHT22;6427;49.754;6.106;2022-12-11T02:05:30;0.50;99.90
12726;DHT22;6427;49.754;6.106;2022-12-11T02:07:58;0.50;99.90
12726;DHT22;6427;49.754;6.106;2022-12-11T02:10:27;0.40;99.90
12726;DHT22;6427;49.754;6.106;2022-12-11T02:12:56;0.40;99.90
12726;DHT22;6427;49.754;6.106;2022-12-11T02:15:36;0.60;99.90
12726;DHT22;6427;49.754;6.106;2022-12-11T02:21:14;0.50;99.90
12726;DHT22;6427;49.754;6.106;2022-12-11T02:23:57;0.70;99.90
12726;DHT22;6427;49.754;6.106;2022-12-11T02:29:19;0.50;99.90
12726;DHT22;6427;49.754;6.106;2022-12-11T02:31:56;0.40;99.90
12726;DHT22;6427;49.754;6.106;2022-12-11T02:36:53;0.40;99.90
12726;DHT22;6427;49.754;6.106;2022-12-11T02:39:19;0.30;99.90
12726;DHT22;6427;49.754;6.106;2022-12-11T02:41:47;0.20;99.90
12726;DHT22;6427;49.754;6.106;2022-12-11T02:44:15;0.50;99.90
12726;DHT22;6427;49.754;6.106;2022-12-11T02:46:42;0.50;99.90
12726;DHT22;6427;49.754;6.106;2022-12-11T02:49:10;0.30;99.90
12726;DHT22;6427;49.754;6.106;2022-12-11T02:51:40;0.30;99.90
12726;DHT22;6427;49.754;6.106;2022-12-11T02:54:19;0.40;99.90
12726;DHT22;6427;49.754;6.106;2022-12-11T02:56:45;0.40;99.90
12726;DHT22;6427;49.754;6.106;2022-12-11T02:59:16;0.40;99.90
12726;DHT22;6427;49.754;6.106;2022-12-11T03:01:42;0.30;99.90
12726;DHT22;6427;49.754;6.106;2022-12-11T03:04:09;0.30;99.90
12726;DHT22;6427;49.754;6.106;2022-12-11T03:06:40;0.50;99.90
12726;DHT22;6427;49.754;6.106;2022-12-11T03:09:05;0.40;99.90
12726;DHT22;6427;49.754;6.106;2022-12-11T03:11:33;0.40;99.90
12726;DHT22;6427;49.754;6.106;2022-12-11T03:14:00;0.30;99.90
12726;DHT22;6427;49.754;6.106;2022-12-11T03:16:34;0.20;99.90
12726;DHT22;6427;49.754;6.106;2022-12-11T03:24:29;0.40;99.90
12726;DHT22;6427;49.754;6.106;2022-12-11T03:26:57;0.40;99.90
12726;DHT22;6427;49.754;6.106;2022-12-11T03:29:25;0.30;99.90
12726;DHT22;6427;49.754;6.106;2022-12-11T03:32:05;0.50;99.90
12726;DHT22;6427;49.754;6.106;2022-12-11T03:34:28;0.50;99.90
12726;DHT22;6427;49.754;6.106;2022-12-11T03:36:55;0.30;99.90
12726;DHT22;6427;49.754;6.106;2022-12-11T03:39:26;0.30;99.90
12726;DHT22;6427;49.754;6.106;2022-12-11T03:41:52;0.30;99.90
12726;DHT22;6427;49.754;6.106;2022-12-11T03:44:20;0.20;99.90
12726;DHT22;6427;49.754;6.106;2022-12-11T03:46:47;0.20;99.90
12726;DHT22;6427;49.754;6.106;2022-12-11T03:49:16;0.10;99.90
12726;DHT22;6427;49.754;6.106;2022-12-11T03:51:44;0.10;99.90
12726;DHT22;6427;49.754;6.106;2022-12-11T03:54:11;0.10;99.90
12726;DHT22;6427;49.754;6.106;2022-12-11T03:56:38;0.10;99.90
12726;DHT22;6427;49.754;6.106;2022-12-11T03:59:07;0.10;99.90
12726;DHT22;6427;49.754;6.106;2022-12-11T04:01:34;0.10;99.90
12726;DHT22;6427;49.754;6.106;2022-12-11T04:04:02;0.10;99.90
12726;DHT22;6427;49.754;6.106;2022-12-11T04:06:30;0.10;99.90
12726;DHT22;6427;49.754;6.106;2022-12-11T04:08:58;0.10;99.90
12726;DHT22;6427;49.754;6.106;2022-12-11T04:11:25;0.10;99.90
12726;DHT22;6427;49.754;6.106;2022-12-11T04:14:09;0.10;99.90
12726;DHT22;6427;49.754;6.106;2022-12-11T04:16:51;0.10;99.90
12726;DHT22;6427;49.754;6.106;2022-12-11T04:19:21;0.10;99.90
12726;DHT22;6427;49.754;6.106;2022-12-11T04:22:06;0.10;99.90
12726;DHT22;6427;49.754;6.106;2022-12-11T04:24:39;0.10;99.90
12726;DHT22;6427;49.754;6.106;2022-12-11T04:27:07;0.30;99.90
12726;DHT22;6427;49.754;6.106;2022-12-11T04:29:34;0.60;99.90
12726;DHT22;6427;49.754;6.106;2022-12-11T04:32:02;0.60;99.90
12726;DHT22;6427;49.754;6.106;2022-12-11T04:34:29;0.50;99.90
12726;DHT22;6427;49.754;6.106;2022-12-11T04:36:57;0.40;99.90
12726;DHT22;6427;49.754;6.106;2022-12-11T04:39:24;0.30;99.90
12726;DHT22;6427;49.754;6.106;2022-12-11T04:41:52;0.20;99.90
12726;DHT22;6427;49.754;6.106;2022-12-11T04:44:19;0.20;99.90
12726;DHT22;6427;49.754;6.106;2022-12-11T04:46:48;0.10;99.90
12726;DHT22;6427;49.754;6.106;2022-12-11T04:49:16;0.10;99.90
12726;DHT22;6427;49.754;6.106;2022-12-11T04:51:43;0.10;99.90
12726;DHT22;6427;49.754;6.106;2022-12-11T04:54:11;0.00;99.90
12726;DHT22;6427;49.754;6.106;2022-12-11T04:56:39;0.00;99.90
12726;DHT22;6427;49.754;6.106;2022-12-11T04:59:06;0.00;99.90
12726;DHT22;6427;49.754;6.106;2022-12-11T05:01:35;-0.10;99.90
12726;DHT22;6427;49.754;6.106;2022-12-11T05:04:02;-0.10;99.90
12726;DHT22;6427;49.754;6.106;2022-12-11T05:06:30;-0.10;99.90
12726;DHT22;6427;49.754;6.106;2022-12-11T05:08:58;-0.20;99.90
12726;DHT22;6427;49.754;6.106;2022-12-11T05:11:26;-0.20;99.90
12726;DHT22;6427;49.754;6.106;2022-12-11T05:13:53;-0.20;99.90
12726;DHT22;6427;49.754;6.106;2022-12-11T05:16:21;-0.20;99.90
12726;DHT22;6427;49.754;6.106;2022-12-11T05:18:50;-0.20;99.90
12726;DHT22;6427;49.754;6.106;2022-12-11T05:21:17;-0.20;99.90
12726;DHT22;6427;49.754;6.106;2022-12-11T05:23:45;-0.20;99.90
12726;DHT22;6427;49.754;6.106;2022-12-11T05:26:14;-0.20;99.90
12726;DHT22;6427;49.754;6.106;2022-12-11T05:28:40;-0.20;99.90
12726;DHT22;6427;49.754;6.106;2022-12-11T05:31:16;-0.20;99.90
12726;DHT22;6427;49.754;6.106;2022-12-11T05:33:38;-0.20;99.90
12726;DHT22;6427;49.754;6.106;2022-12-11T05:36:08;-0.20;99.90
12726;DHT22;6427;49.754;6.106;2022-12-11T05:38:35;-0.20;99.90
12726;DHT22;6427;49.754;6.106;2022-12-11T05:41:04;-0.20;99.90
12726;DHT22;6427;49.754;6.106;2022-12-11T05:43:31;0.00;99.90
12726;DHT22;6427;49.754;6.106;2022-12-11T05:46:08;0.00;99.90
12726;DHT22;6427;49.754;6.106;2022-12-11T05:48:35;0.00;99.90
12726;DHT22;6427;49.754;6.106;2022-12-11T05:51:02;0.00;99.90
12726;DHT22;6427;49.754;6.106;2022-12-11T05:53:30;0.00;99.90
12726;DHT22;6427;49.754;6.106;2022-12-11T05:56:02;0.00;99.90
12726;DHT22;6427;49.754;6.106;2022-12-11T05:58:29;-0.10;99.90
12726;DHT22;6427;49.754;6.106;2022-12-11T06:00:56;-0.10;99.90
12726;DHT22;6427;49.754;6.106;2022-12-11T06:03:24;-0.10;99.90
12726;DHT22;6427;49.754;6.106;2022-12-11T06:05:51;-0.10;99.90
12726;DHT22;6427;49.754;6.106;2022-12-11T06:08:19;-0.20;99.90
12726;DHT22;6427;49.754;6.106;2022-12-11T06:10:47;-0.20;99.90
12726;DHT22;6427;49.754;6.106;2022-12-11T06:13:14;-0.10;99.90
12726;DHT22;6427;49.754;6.106;2022-12-11T06:15:41;-0.10;99.90
12726;DHT22;6427;49.754;6.106;2022-12-11T06:18:09;-0.10;99.90
12726;DHT22;6427;49.754;6.106;2022-12-11T06:20:37;-0.10;99.90
12726;DHT22;6427;49.754;6.106;2022-12-11T06:23:05;-0.20;99.90
12726;DHT22;6427;49.754;6.106;2022-12-11T06:25:33;-0.20;99.90
12726;DHT22;6427;49.754;6.106;2022-12-11T06:28:00;-0.20;99.90
12726;DHT22;6427;49.754;6.106;2022-12-11T06:30:28;-0.20;99.90
12726;DHT22;6427;49.754;6.106;2022-12-11T06:32:56;-0.20;99.90
12726;DHT22;6427;49.754;6.106;2022-12-11T06:35:23;-0.10;99.90
12726;DHT22;6427;49.754;6.106;2022-12-11T06:37:50;-0.10;99.90
12726;DHT22;6427;49.754;6.106;2022-12-11T06:40:18;-0.10;99.90
12726;DHT22;6427;49.754;6.106;2022-12-11T06:42:45;-0.10;99.90
12726;DHT22;6427;49.754;6.106;2022-12-11T06:45:13;-0.10;99.90
12726;DHT22;6427;49.754;6.106;2022-12-11T06:47:41;-0.10;99.90
12726;DHT22;6427;49.754;6.106;2022-12-11T06:50:09;-0.10;99.90
12726;DHT22;6427;49.754;6.106;2022-12-11T06:52:36;-0.10;99.90
12726;DHT22;6427;49.754;6.106;2022-12-11T06:55:04;0.00;99.90
12726;DHT22;6427;49.754;6.106;2022-12-11T06:57:32;0.00;99.90
12726;DHT22;6427;49.754;6.106;2022-12-11T07:00:01;0.00;99.90
12726;DHT22;6427;49.754;6.106;2022-12-11T07:02:28;0.00;99.90
12726;DHT22;6427;49.754;6.106;2022-12-11T07:04:56;0.00;99.90
12726;DHT22;6427;49.754;6.106;2022-12-11T07:07:24;0.00;99.90
12726;DHT22;6427;49.754;6.106;2022-12-11T07:09:52;0.00;99.90
12726;DHT22;6427;49.754;6.106;2022-12-11T07:12:19;0.00;99.90
12726;DHT22;6427;49.754;6.106;2022-12-11T07:14:47;0.00;99.90
12726;DHT22;6427;49.754;6.106;2022-12-11T07:17:15;0.00;99.90
12726;DHT22;6427;49.754;6.106;2022-12-11T07:19:42;0.00;99.90
12726;DHT22;6427;49.754;6.106;2022-12-11T07:22:10;0.00;99.90
12726;DHT22;6427;49.754;6.106;2022-12-11T07:24:38;0.00;99.90
12726;DHT22;6427;49.754;6.106;2022-12-11T07:27:06;0.00;99.90
12726;DHT22;6427;49.754;6.106;2022-12-11T07:29:35;0.00;99.90
12726;DHT22;6427;49.754;6.106;2022-12-11T07:32:02;0.00;99.90
12726;DHT22;6427;49.754;6.106;2022-12-11T07:34:30;0.00;99.90
12726;DHT22;6427;49.754;6.106;2022-12-11T07:36:58;0.00;99.90
12726;DHT22;6427;49.754;6.106;2022-12-11T07:39:25;0.00;99.90
12726;DHT22;6427;49.754;6.106;2022-12-11T07:41:54;0.00;99.90
12726;DHT22;6427;49.754;6.106;2022-12-11T07:44:21;0.00;99.90
12726;DHT22;6427;49.754;6.106;2022-12-11T07:46:49;0.00;99.90
12726;DHT22;6427;49.754;6.106;2022-12-11T07:49:16;0.10;99.90
12726;DHT22;6427;49.754;6.106;2022-12-11T07:51:44;0.10;99.90
12726;DHT22;6427;49.754;6.106;2022-12-11T07:54:14;0.10;99.90
12726;DHT22;6427;49.754;6.106;2022-12-11T07:56:45;0.10;99.90
12726;DHT22;6427;49.754;6.106;2022-12-11T07:59:08;0.10;99.90
12726;DHT22;6427;49.754;6.106;2022-12-11T08:01:36;0.10;99.90
12726;DHT22;6427;49.754;6.106;2022-12-11T08:04:03;0.10;99.90
12726;DHT22;6427;49.754;6.106;2022-12-11T08:06:32;0.20;99.90
12726;DHT22;6427;49.754;6.106;2022-12-11T08:08:59;0.20;99.90
12726;DHT22;6427;49.754;6.106;2022-12-11T08:11:26;0.20;99.90
12726;DHT22;6427;49.754;6.106;2022-12-11T08:13:54;0.20;99.90
12726;DHT22;6427;49.754;6.106;2022-12-11T08:16:21;0.20;99.90
12726;DHT22;6427;49.754;6.106;2022-12-11T08:18:49;0.20;99.90
12726;DHT22;6427;49.754;6.106;2022-12-11T08:21:17;0.20;99.90
12726;DHT22;6427;49.754;6.106;2022-12-11T08:23:44;0.20;99.90
12726;DHT22;6427;49.754;6.106;2022-12-11T08:26:15;0.20;99.90
12726;DHT22;6427;49.754;6.106;2022-12-11T08:28:42;0.20;99.90
12726;DHT22;6427;49.754;6.106;2022-12-11T08:31:10;0.50;99.90
12726;DHT22;6427;49.754;6.106;2022-12-11T08:33:38;0.50;99.90
12726;DHT22;6427;49.754;6.106;2022-12-11T08:36:07;0.50;99.90
12726;DHT22;6427;49.754;6.106;2022-12-11T08:38:34;0.40;99.90
12726;DHT22;6427;49.754;6.106;2022-12-11T08:41:08;0.40;99.90
12726;DHT22;6427;49.754;6.106;2022-12-11T08:43:35;0.40;99.90
12726;DHT22;6427;49.754;6.106;2022-12-11T08:46:02;0.40;99.90
12726;DHT22;6427;49.754;6.106;2022-12-11T08:48:30;0.40;99.90
12726;DHT22;6427;49.754;6.106;2022-12-11T08:51:01;0.40;99.90
12726;DHT22;6427;49.754;6.106;2022-12-11T08:53:28;0.40;99.90
12726;DHT22;6427;49.754;6.106;2022-12-11T08:56:08;0.40;99.90
12726;DHT22;6427;49.754;6.106;2022-12-11T08:58:35;0.70;99.90
12726;DHT22;6427;49.754;6.106;2022-12-11T09:01:06;0.70;99.90
12726;DHT22;6427;49.754;6.106;2022-12-11T09:03:33;0.70;99.90
12726;DHT22;6427;49.754;6.106;2022-12-11T09:06:04;0.60;99.90
12726;DHT22;6427;49.754;6.106;2022-12-11T09:08:32;0.60;99.90
12726;DHT22;6427;49.754;6.106;2022-12-11T09:11:06;0.60;99.90
12726;DHT22;6427;49.754;6.106;2022-12-11T09:13:33;0.60;99.90
12726;DHT22;6427;49.754;6.106;2022-12-11T09:16:02;0.80;99.90
12726;DHT22;6427;49.754;6.106;2022-12-11T09:18:28;0.80;99.90
12726;DHT22;6427;49.754;6.106;2022-12-11T09:20:59;0.80;99.90
12726;DHT22;6427;49.754;6.106;2022-12-11T09:23:26;0.80;99.90
12726;DHT22;6427;49.754;6.106;2022-12-11T09:25:54;0.70;99.90
12726;DHT22;6427;49.754;6.106;2022-12-11T09:28:22;0.70;99.90
12726;DHT22;6427;49.754;6.106;2022-12-11T09:30:49;0.70;99.90
12726;DHT22;6427;49.754;6.106;2022-12-11T09:33:17;0.60;99.90
12726;DHT22;6427;49.754;6.106;2022-12-11T09:35:45;0.70;99.90
12726;DHT22;6427;49.754;6.106;2022-12-11T09:38:13;0.70;99.90
12726;DHT22;6427;49.754;6.106;2022-12-11T09:40:41;0.70;99.90
12726;DHT22;6427;49.754;6.106;2022-12-11T09:43:20;0.90;99.90
12726;DHT22;6427;49.754;6.106;2022-12-11T09:45:45;0.90;99.90
12726;DHT22;6427;49.754;6.106;2022-12-11T09:48:19;1.20;99.90
12726;DHT22;6427;49.754;6.106;2022-12-11T09:50:40;1.20;99.90
12726;DHT22;6427;49.754;6.106;2022-12-11T09:53:12;1.10;99.90
12726;DHT22;6427;49.754;6.106;2022-12-11T09:55:43;1.10;99.90
12726;DHT22;6427;49.754;6.106;2022-12-11T10:01:09;1.00;99.90
12726;DHT22;6427;49.754;6.106;2022-12-11T10:03:47;1.00;99.90
12726;DHT22;6427;49.754;6.106;2022-12-11T10:06:35;1.00;99.90
12726;DHT22;6427;49.754;6.106;2022-12-11T10:09:11;1.00;99.90
12726;DHT22;6427;49.754;6.106;2022-12-11T10:17:30;1.00;99.90
12726;DHT22;6427;49.754;6.106;2022-12-11T10:19:53;0.90;99.90
12726;DHT22;6427;49.754;6.106;2022-12-11T10:22:21;1.00;99.90
12726;DHT22;6427;49.754;6.106;2022-12-11T10:25:00;1.00;99.90
12726;DHT22;6427;49.754;6.106;2022-12-11T10:27:32;1.00;99.90
12726;DHT22;6427;49.754;6.106;2022-12-11T10:32:51;1.30;99.90
12726;DHT22;6427;49.754;6.106;2022-12-11T10:37:54;1.30;99.90
12726;DHT22;6427;49.754;6.106;2022-12-11T10:40:20;1.30;99.90
12726;DHT22;6427;49.754;6.106;2022-12-11T10:42:51;1.30;99.90
12726;DHT22;6427;49.754;6.106;2022-12-11T10:45:18;1.30;99.90
12726;DHT22;6427;49.754;6.106;2022-12-11T10:47:46;1.40;99.90
12726;DHT22;6427;49.754;6.106;2022-12-11T10:50:24;1.40;99.90
12726;DHT22;6427;49.754;6.106;2022-12-11T10:52:50;1.40;99.90
12726;DHT22;6427;49.754;6.106;2022-12-11T10:55:42;1.40;99.90
12726;DHT22;6427;49.754;6.106;2022-12-11T10:58:06;1.40;99.90
12726;DHT22;6427;49.754;6.106;2022-12-11T11:00:35;1.40;99.90
12726;DHT22;6427;49.754;6.106;2022-12-11T11:03:01;1.40;99.90
12726;DHT22;6427;49.754;6.106;2022-12-11T11:05:33;1.40;99.90
12726;DHT22;6427;49.754;6.106;2022-12-11T11:08:15;1.50;99.90
12726;DHT22;6427;49.754;6.106;2022-12-11T11:10:57;1.50;99.90
12726;DHT22;6427;49.754;6.106;2022-12-11T11:13:25;1.50;99.90
12726;DHT22;6427;49.754;6.106;2022-12-11T11:16:03;1.50;99.90
12726;DHT22;6427;49.754;6.106;2022-12-11T11:18:26;1.40;99.90
12726;DHT22;6427;49.754;6.106;2022-12-11T11:20:55;1.70;99.90
12726;DHT22;6427;49.754;6.106;2022-12-11T11:23:23;1.70;99.90
12726;DHT22;6427;49.754;6.106;2022-12-11T11:25:57;1.70;99.90
12726;DHT22;6427;49.754;6.106;2022-12-11T11:28:27;1.70;99.90
12726;DHT22;6427;49.754;6.106;2022-12-11T11:33:27;1.60;99.90
12726;DHT22;6427;49.754;6.106;2022-12-11T11:35:56;1.60;99.90
12726;DHT22;6427;49.754;6.106;2022-12-11T11:38:42;1.60;99.90
12726;DHT22;6427;49.754;6.106;2022-12-11T11:41:31;1.80;99.90
12726;DHT22;6427;49.754;6.106;2022-12-11T11:43:57;1.80;99.90
12726;DHT22;6427;49.754;6.106;2022-12-11T11:46:36;1.80;99.90
12726;DHT22;6427;49.754;6.106;2022-12-11T11:52:11;2.00;99.90
12726;DHT22;6427;49.754;6.106;2022-12-11T11:57:44;1.90;99.90
12726;DHT22;6427;49.754;6.106;2022-12-11T12:00:20;2.20;99.90
12726;DHT22;6427;49.754;6.106;2022-12-11T12:02:48;2.10;99.90
12726;DHT22;6427;49.754;6.106;2022-12-11T12:05:16;2.10;99.90
12726;DHT22;6427;49.754;6.106;2022-12-11T12:08:04;1.90;99.90
12726;DHT22;6427;49.754;6.106;2022-12-11T12:13:15;1.90;99.90
12726;DHT22;6427;49.754;6.106;2022-12-11T12:15:56;2.10;99.90
12726;DHT22;6427;49.754;6.106;2022-12-11T12:26:09;1.90;99.90
12726;DHT22;6427;49.754;6.106;2022-12-11T12:28:47;1.90;99.90
12726;DHT22;6427;49.754;6.106;2022-12-11T12:31:39;1.80;99.90
12726;DHT22;6427;49.754;6.106;2022-12-11T12:47:29;1.80;99.90
12726;DHT22;6427;49.754;6.106;2022-12-11T12:49:56;2.00;99.90
12726;DHT22;6427;49.754;6.106;2022-12-11T12:52:36;2.20;99.90
12726;DHT22;6427;49.754;6.106;2022-12-11T12:55:04;2.40;99.90
12726;DHT22;6427;49.754;6.106;2022-12-11T13:03:23;2.10;99.90
12726;DHT22;6427;49.754;6.106;2022-12-11T13:05:29;2.00;99.90
12726;DHT22;6427;49.754;6.106;2022-12-11T13:08:01;1.90;99.90
12726;DHT22;6427;49.754;6.106;2022-12-11T13:10:35;1.90;99.90
12726;DHT22;6427;49.754;6.106;2022-12-11T13:13:03;1.80;99.90
12726;DHT22;6427;49.754;6.106;2022-12-11T13:15:39;1.80;99.90
12726;DHT22;6427;49.754;6.106;2022-12-11T13:18:30;1.80;99.90
12726;DHT22;6427;49.754;6.106;2022-12-11T13:20:33;2.00;99.90
12726;DHT22;6427;49.754;6.106;2022-12-11T13:23:29;2.10;99.90
12726;DHT22;6427;49.754;6.106;2022-12-11T13:25:58;2.30;99.90
12726;DHT22;6427;49.754;6.106;2022-12-11T13:28:25;2.20;99.90
12726;DHT22;6427;49.754;6.106;2022-12-11T13:33:28;2.10;99.90
12726;DHT22;6427;49.754;6.106;2022-12-11T13:38:43;1.90;99.90
12726;DHT22;6427;49.754;6.106;2022-12-11T13:41:12;1.90;99.90
12726;DHT22;6427;49.754;6.106;2022-12-11T13:43:40;1.80;99.90
12726;DHT22;6427;49.754;6.106;2022-12-11T13:46:08;1.80;99.90
12726;DHT22;6427;49.754;6.106;2022-12-11T13:48:41;2.00;99.90
12726;DHT22;6427;49.754;6.106;2022-12-11T13:51:04;2.00;99.90
12726;DHT22;6427;49.754;6.106;2022-12-11T13:53:32;2.20;99.90
12726;DHT22;6427;49.754;6.106;2022-12-11T13:56:04;2.20;99.90
12726;DHT22;6427;49.754;6.106;2022-12-11T13:58:28;2.10;99.90
12726;DHT22;6427;49.754;6.106;2022-12-11T14:01:01;2.10;99.90
12726;DHT22;6427;49.754;6.106;2022-12-11T14:03:23;2.00;99.90
12726;DHT22;6427;49.754;6.106;2022-12-11T14:05:51;1.90;99.90
12726;DHT22;6427;49.754;6.106;2022-12-11T14:08:22;1.90;99.90
12726;DHT22;6427;49.754;6.106;2022-12-11T14:10:52;1.90;99.90
12726;DHT22;6427;49.754;6.106;2022-12-11T14:13:30;1.80;99.90
12726;DHT22;6427;49.754;6.106;2022-12-11T14:15:51;1.80;99.90
12726;DHT22;6427;49.754;6.106;2022-12-11T14:18:25;1.70;99.90
12726;DHT22;6427;49.754;6.106;2022-12-11T14:20:56;1.70;99.90
12726;DHT22;6427;49.754;6.106;2022-12-11T14:23:23;1.60;99.90
12726;DHT22;6427;49.754;6.106;2022-12-11T14:25:57;1.60;99.90
12726;DHT22;6427;49.754;6.106;2022-12-11T14:28:25;1.60;99.90
12726;DHT22;6427;49.754;6.106;2022-12-11T14:30:57;1.50;99.90
12726;DHT22;6427;49.754;6.106;2022-12-11T14:33:34;1.60;99.90
12726;DHT22;6427;49.754;6.106;2022-12-11T14:36:01;1.50;99.90
12726;DHT22;6427;49.754;6.106;2022-12-11T14:38:31;1.50;99.90
12726;DHT22;6427;49.754;6.106;2022-12-11T14:41:05;1.50;99.90
12726;DHT22;6427;49.754;6.106;2022-12-11T14:43:32;1.50;99.90
12726;DHT22;6427;49.754;6.106;2022-12-11T14:46:02;1.50;99.90
12726;DHT22;6427;49.754;6.106;2022-12-11T14:48:34;1.50;99.90
12726;DHT22;6427;49.754;6.106;2022-12-11T14:51:00;1.50;99.90
12726;DHT22;6427;49.754;6.106;2022-12-11T14:53:35;1.50;99.90
12726;DHT22;6427;49.754;6.106;2022-12-11T14:56:04;1.50;99.90
12726;DHT22;6427;49.754;6.106;2022-12-11T14:58:31;1.50;99.90
12726;DHT22;6427;49.754;6.106;2022-12-11T15:01:06;1.50;99.90
12726;DHT22;6427;49.754;6.106;2022-12-11T15:03:36;1.50;99.90
12726;DHT22;6427;49.754;6.106;2022-12-11T15:08:49;1.50;99.90
12726;DHT22;6427;49.754;6.106;2022-12-11T15:11:17;1.50;99.90
12726;DHT22;6427;49.754;6.106;2022-12-11T15:13:50;1.50;99.90
12726;DHT22;6427;49.754;6.106;2022-12-11T15:16:15;1.50;99.90
12726;DHT22;6427;49.754;6.106;2022-12-11T15:18:42;1.50;99.90
12726;DHT22;6427;49.754;6.106;2022-12-11T15:21:10;1.70;99.90
12726;DHT22;6427;49.754;6.106;2022-12-11T15:24:24;1.70;99.90
12726;DHT22;6427;49.754;6.106;2022-12-11T15:26:05;1.90;99.90
12726;DHT22;6427;49.754;6.106;2022-12-11T15:28:33;1.90;99.90
12726;DHT22;6427;49.754;6.106;2022-12-11T15:31:02;1.70;99.90
12726;DHT22;6427;49.754;6.106;2022-12-11T15:33:28;1.70;99.90
12726;DHT22;6427;49.754;6.106;2022-12-11T15:36:03;1.60;99.90
12726;DHT22;6427;49.754;6.106;2022-12-11T15:38:36;1.80;99.90
12726;DHT22;6427;49.754;6.106;2022-12-11T15:41:01;1.80;99.90
12726;DHT22;6427;49.754;6.106;2022-12-11T15:43:28;2.00;99.90
12726;DHT22;6427;49.754;6.106;2022-12-11T15:45:55;2.00;99.90
12726;DHT22;6427;49.754;6.106;2022-12-11T15:48:23;1.90;99.90
12726;DHT22;6427;49.754;6.106;2022-12-11T15:50:51;1.80;99.90
12726;DHT22;6427;49.754;6.106;2022-12-11T15:53:18;1.90;99.90
12726;DHT22;6427;49.754;6.106;2022-12-11T15:55:46;1.90;99.90
12726;DHT22;6427;49.754;6.106;2022-12-11T15:58:17;1.80;99.90
12726;DHT22;6427;49.754;6.106;2022-12-11T16:00:44;1.80;99.90
12726;DHT22;6427;49.754;6.106;2022-12-11T16:03:12;1.70;99.90
12726;DHT22;6427;49.754;6.106;2022-12-11T16:05:40;1.50;99.90
12726;DHT22;6427;49.754;6.106;2022-12-11T16:08:08;1.50;99.90
12726;DHT22;6427;49.754;6.106;2022-12-11T16:10:35;1.50;99.90
12726;DHT22;6427;49.754;6.106;2022-12-11T16:13:03;1.40;99.90
12726;DHT22;6427;49.754;6.106;2022-12-11T16:15:31;1.30;99.90
12726;DHT22;6427;49.754;6.106;2022-12-11T16:18:03;1.30;99.90
12726;DHT22;6427;49.754;6.106;2022-12-11T16:20:26;1.30;99.90
12726;DHT22;6427;49.754;6.106;2022-12-11T16:22:54;1.50;99.90
12726;DHT22;6427;49.754;6.106;2022-12-11T16:25:22;1.50;99.90
12726;DHT22;6427;49.754;6.106;2022-12-11T16:27:50;1.50;99.90
12726;DHT22;6427;49.754;6.106;2022-12-11T16:30:17;1.40;99.90
12726;DHT22;6427;49.754;6.106;2022-12-11T16:32:45;1.30;99.90
12726;DHT22;6427;49.754;6.106;2022-12-11T16:35:13;1.30;99.90
12726;DHT22;6427;49.754;6.106;2022-12-11T16:40:19;1.20;99.90
12726;DHT22;6427;49.754;6.106;2022-12-11T16:42:47;1.20;99.90
12726;DHT22;6427;49.754;6.106;2022-12-11T16:45:16;1.20;99.90
12726;DHT22;6427;49.754;6.106;2022-12-11T16:47:44;1.20;99.90
12726;DHT22;6427;49.754;6.106;2022-12-11T16:50:12;1.20;99.90
12726;DHT22;6427;49.754;6.106;2022-12-11T16:52:40;1.20;99.90
12726;DHT22;6427;49.754;6.106;2022-12-11T16:55:08;1.20;99.90
12726;DHT22;6427;49.754;6.106;2022-12-11T16:57:35;1.20;99.90
12726;DHT22;6427;49.754;6.106;2022-12-11T17:00:04;1.10;99.90
12726;DHT22;6427;49.754;6.106;2022-12-11T17:02:33;1.10;99.90
12726;DHT22;6427;49.754;6.106;2022-12-11T17:05:00;1.10;99.90
12726;DHT22;6427;49.754;6.106;2022-12-11T17:07:29;1.00;99.90
12726;DHT22;6427;49.754;6.106;2022-12-11T17:09:55;1.00;99.90
12726;DHT22;6427;49.754;6.106;2022-12-11T17:12:23;1.00;99.90
12726;DHT22;6427;49.754;6.106;2022-12-11T17:14:51;1.10;99.90
12726;DHT22;6427;49.754;6.106;2022-12-11T17:17:19;1.10;99.90
12726;DHT22;6427;49.754;6.106;2022-12-11T17:19:46;1.10;99.90
12726;DHT22;6427;49.754;6.106;2022-12-11T17:22:14;1.30;99.90
12726;DHT22;6427;49.754;6.106;2022-12-11T17:24:42;1.40;99.90
12726;DHT22;6427;49.754;6.106;2022-12-11T17:27:09;1.30;99.90
12726;DHT22;6427;49.754;6.106;2022-12-11T17:29:37;1.30;99.90